sensor_id;sensor_type;location;lat;lon;timestamp;pressure;altitude;pressure_sealevel;temperature;humidity
50682;BME280;36779;52.168;20.878;2023-01-28T00:02:29;101227.52;;;-0.29;77.16
50682;BME280;36779;52.168;20.878;2023-01-28T00:05:22;101225.61;;;-0.30;77.17
50682;BME280;36779;52.168;20.878;2023-01-28T00:08:13;101226.20;;;-0.27;77.18
50682;BME280;36779;52.168;20.878;2023-01-28T00:11:05;101228.00;;;-0.25;77.15
50682;BME280;36779;52.168;20.878;2023-01-28T00:13:55;101233.44;;;-0.21;77.26
50682;BME280;36779;52.168;20.878;2023-01-28T00:16:44;101235.31;;;-0.17;77.25
50682;BME280;36779;52.168;20.878;2023-01-28T00:19:34;101239.56;;;-0.14;77.28
50682;BME280;36779;52.168;20.878;2023-01-28T00:22:25;101240.90;;;-0.17;77.23
50682;BME280;36779;52.168;20.878;2023-01-28T00:25:15;101239.35;;;-0.21;77.17
50682;BME280;36779;52.168;20.878;2023-01-28T00:28:06;101231.87;;;-0.25;77.41
50682;BME280;36779;52.168;20.878;2023-01-28T00:30:57;101229.64;;;-0.26;77.33
50682;BME280;36779;52.168;20.878;2023-01-28T00:33:50;101235.13;;;-0.24;77.39
50682;BME280;36779;52.168;20.878;2023-01-28T00:36:41;101233.20;;;-0.20;77.41
50682;BME280;36779;52.168;20.878;2023-01-28T00:39:30;101235.90;;;-0.14;77.33
50682;BME280;36779;52.168;20.878;2023-01-28T00:42:20;101235.25;;;-0.12;77.34
50682;BME280;36779;52.168;20.878;2023-01-28T00:45:14;101235.80;;;-0.09;77.34
50682;BME280;36779;52.168;20.878;2023-01-28T00:48:05;101234.30;;;-0.03;77.39
50682;BME280;36779;52.168;20.878;2023-01-28T00:50:56;101232.36;;;-0.03;77.40
50682;BME280;36779;52.168;20.878;2023-01-28T00:53:47;101236.31;;;-0.05;77.41
50682;BME280;36779;52.168;20.878;2023-01-28T00:56:37;101236.15;;;-0.05;77.40
50682;BME280;36779;52.168;20.878;2023-01-28T00:59:27;101234.11;;;-0.06;77.40
50682;BME280;36779;52.168;20.878;2023-01-28T01:02:21;101231.55;;;-0.08;77.51
50682;BME280;36779;52.168;20.878;2023-01-28T01:05:13;101228.67;;;-0.09;77.55
50682;BME280;36779;52.168;20.878;2023-01-28T01:08:05;101230.30;;;-0.11;77.43
50682;BME280;36779;52.168;20.878;2023-01-28T01:10:58;101231.30;;;-0.10;77.65
50682;BME280;36779;52.168;20.878;2023-01-28T01:13:52;101232.16;;;-0.02;77.64
50682;BME280;36779;52.168;20.878;2023-01-28T01:16:42;101234.14;;;0.08;77.84
50682;BME280;36779;52.168;20.878;2023-01-28T01:19:31;101233.27;;;0.15;77.76
50682;BME280;36779;52.168;20.878;2023-01-28T01:22:24;101234.71;;;0.21;77.84
50682;BME280;36779;52.168;20.878;2023-01-28T01:25:17;101233.47;;;0.29;77.87
50682;BME280;36779;52.168;20.878;2023-01-28T01:28:06;101233.71;;;0.34;77.87
50682;BME280;36779;52.168;20.878;2023-01-28T01:30:58;101229.70;;;0.31;77.65
50682;BME280;36779;52.168;20.878;2023-01-28T01:33:49;101228.98;;;0.20;77.54
50682;BME280;36779;52.168;20.878;2023-01-28T01:36:40;101230.53;;;0.13;77.52
50682;BME280;36779;52.168;20.878;2023-01-28T01:39:23;101226.47;;;0.07;77.43
50682;BME280;36779;52.168;20.878;2023-01-28T01:42:14;101220.71;;;0.04;77.60
50682;BME280;36779;52.168;20.878;2023-01-28T01:45:33;101226.55;;;0.02;77.57
50682;BME280;36779;52.168;20.878;2023-01-28T01:48:26;101227.83;;;0.01;77.58
50682;BME280;36779;52.168;20.878;2023-01-28T01:51:18;101231.33;;;0.01;77.59
50682;BME280;36779;52.168;20.878;2023-01-28T01:54:10;101228.65;;;-0.02;77.47
50682;BME280;36779;52.168;20.878;2023-01-28T01:57:01;101227.26;;;-0.02;77.45
50682;BME280;36779;52.168;20.878;2023-01-28T01:59:53;101226.41;;;-0.02;77.39
50682;BME280;36779;52.168;20.878;2023-01-28T02:02:51;101226.02;;;0.02;77.48
50682;BME280;36779;52.168;20.878;2023-01-28T02:05:45;101232.55;;;0.05;77.52
50682;BME280;36779;52.168;20.878;2023-01-28T02:08:28;101229.63;;;0.04;77.44
50682;BME280;36779;52.168;20.878;2023-01-28T02:11:18;101234.17;;;-0.00;77.50
50682;BME280;36779;52.168;20.878;2023-01-28T02:14:08;101230.85;;;-0.00;77.65
50682;BME280;36779;52.168;20.878;2023-01-28T02:17:03;101231.00;;;0.01;77.75
50682;BME280;36779;52.168;20.878;2023-01-28T02:19:56;101233.45;;;-0.03;77.62
50682;BME280;36779;52.168;20.878;2023-01-28T02:26:46;101233.11;;;-0.04;77.60
50682;BME280;36779;52.168;20.878;2023-01-28T02:29:46;101234.58;;;0.03;77.64
50682;BME280;36779;52.168;20.878;2023-01-28T02:32:44;101229.96;;;0.00;77.51
50682;BME280;36779;52.168;20.878;2023-01-28T02:35:38;101231.33;;;0.04;77.71
50682;BME280;36779;52.168;20.878;2023-01-28T02:38:49;101233.17;;;0.09;77.67
50682;BME280;36779;52.168;20.878;2023-01-28T02:41:45;101235.47;;;0.13;77.65
50682;BME280;36779;52.168;20.878;2023-01-28T02:44:37;101234.27;;;0.12;77.66
50682;BME280;36779;52.168;20.878;2023-01-28T02:47:27;101235.21;;;0.11;77.60
50682;BME280;36779;52.168;20.878;2023-01-28T02:50:42;101236.36;;;0.09;77.68
50682;BME280;36779;52.168;20.878;2023-01-28T02:53:37;101234.09;;;0.05;77.67
50682;BME280;36779;52.168;20.878;2023-01-28T02:56:31;101234.59;;;0.02;77.58
50682;BME280;36779;52.168;20.878;2023-01-28T02:59:28;101240.09;;;-0.03;77.67
50682;BME280;36779;52.168;20.878;2023-01-28T03:02:29;101241.20;;;-0.05;77.65
50682;BME280;36779;52.168;20.878;2023-01-28T03:05:24;101241.67;;;-0.03;77.63
50682;BME280;36779;52.168;20.878;2023-01-28T03:08:15;101237.98;;;-0.03;77.60
50682;BME280;36779;52.168;20.878;2023-01-28T03:11:25;101239.36;;;0.01;77.59
50682;BME280;36779;52.168;20.878;2023-01-28T03:14:35;101240.98;;;0.04;77.66
50682;BME280;36779;52.168;20.878;2023-01-28T03:17:48;101240.39;;;0.09;77.63
50682;BME280;36779;52.168;20.878;2023-01-28T03:21:07;101241.40;;;0.09;77.64
50682;BME280;36779;52.168;20.878;2023-01-28T03:24:23;101244.05;;;0.09;77.58
50682;BME280;36779;52.168;20.878;2023-01-28T03:27:35;101242.21;;;0.07;77.64
50682;BME280;36779;52.168;20.878;2023-01-28T03:30:46;101238.63;;;0.05;77.72
50682;BME280;36779;52.168;20.878;2023-01-28T03:33:57;101238.34;;;0.04;77.62
50682;BME280;36779;52.168;20.878;2023-01-28T03:37:06;101237.61;;;0.01;77.69
50682;BME280;36779;52.168;20.878;2023-01-28T03:40:05;101240.51;;;-0.01;77.67
50682;BME280;36779;52.168;20.878;2023-01-28T03:42:56;101237.16;;;-0.04;77.58
50682;BME280;36779;52.168;20.878;2023-01-28T03:45:54;101236.26;;;-0.07;77.44
50682;BME280;36779;52.168;20.878;2023-01-28T03:48:44;101238.72;;;-0.08;77.57
50682;BME280;36779;52.168;20.878;2023-01-28T03:51:34;101238.86;;;-0.07;77.61
50682;BME280;36779;52.168;20.878;2023-01-28T03:54:24;101242.21;;;-0.04;77.56
50682;BME280;36779;52.168;20.878;2023-01-28T03:57:13;101243.83;;;-0.02;77.62
50682;BME280;36779;52.168;20.878;2023-01-28T04:00:08;101240.89;;;0.02;77.65
50682;BME280;36779;52.168;20.878;2023-01-28T04:03:04;101241.31;;;0.04;77.65
50682;BME280;36779;52.168;20.878;2023-01-28T04:06:15;101241.34;;;0.04;77.63
50682;BME280;36779;52.168;20.878;2023-01-28T04:09:04;101236.09;;;-0.00;77.68
50682;BME280;36779;52.168;20.878;2023-01-28T04:11:54;101239.83;;;-0.02;77.66
50682;BME280;36779;52.168;20.878;2023-01-28T04:14:48;101236.81;;;-0.04;77.68
50682;BME280;36779;52.168;20.878;2023-01-28T04:17:38;101241.30;;;-0.07;77.73
50682;BME280;36779;52.168;20.878;2023-01-28T04:20:27;101242.31;;;-0.10;77.72
50682;BME280;36779;52.168;20.878;2023-01-28T04:23:16;101240.08;;;-0.10;77.74
50682;BME280;36779;52.168;20.878;2023-01-28T04:26:09;101235.79;;;-0.09;77.70
50682;BME280;36779;52.168;20.878;2023-01-28T04:28:59;101236.42;;;-0.07;77.74
50682;BME280;36779;52.168;20.878;2023-01-28T04:31:50;101238.09;;;-0.05;77.69
50682;BME280;36779;52.168;20.878;2023-01-28T04:34:46;101238.73;;;-0.04;77.58
50682;BME280;36779;52.168;20.878;2023-01-28T04:37:50;101239.60;;;-0.00;77.67
50682;BME280;36779;52.168;20.878;2023-01-28T04:40:43;101240.98;;;0.04;77.75
50682;BME280;36779;52.168;20.878;2023-01-28T04:43:33;101239.69;;;0.05;77.76
50682;BME280;36779;52.168;20.878;2023-01-28T04:50:27;101244.51;;;0.03;77.71
50682;BME280;36779;52.168;20.878;2023-01-28T04:53:27;101246.09;;;-0.01;77.84
50682;BME280;36779;52.168;20.878;2023-01-28T04:56:25;101246.42;;;-0.04;77.77
50682;BME280;36779;52.168;20.878;2023-01-28T04:59:17;101245.83;;;-0.06;77.63
50682;BME280;36779;52.168;20.878;2023-01-28T05:02:17;101250.41;;;-0.07;77.73
50682;BME280;36779;52.168;20.878;2023-01-28T05:05:25;101249.01;;;-0.07;77.69
50682;BME280;36779;52.168;20.878;2023-01-28T05:08:25;101246.30;;;-0.05;77.77
50682;BME280;36779;52.168;20.878;2023-01-28T05:11:15;101247.28;;;-0.04;77.68
50682;BME280;36779;52.168;20.878;2023-01-28T05:14:06;101250.20;;;-0.03;77.77
50682;BME280;36779;52.168;20.878;2023-01-28T05:16:57;101250.79;;;-0.00;77.72
50682;BME280;36779;52.168;20.878;2023-01-28T05:19:56;101254.45;;;-0.00;77.87
50682;BME280;36779;52.168;20.878;2023-01-28T05:22:45;101255.00;;;-0.01;77.80
50682;BME280;36779;52.168;20.878;2023-01-28T05:25:44;101258.73;;;0.02;77.92
50682;BME280;36779;52.168;20.878;2023-01-28T05:28:35;101256.59;;;0.02;77.93
50682;BME280;36779;52.168;20.878;2023-01-28T05:31:26;101263.42;;;0.02;77.86
50682;BME280;36779;52.168;20.878;2023-01-28T05:34:16;101265.12;;;-0.00;77.89
50682;BME280;36779;52.168;20.878;2023-01-28T05:37:08;101265.42;;;-0.03;77.95
50682;BME280;36779;52.168;20.878;2023-01-28T05:39:59;101263.02;;;-0.04;77.93
50682;BME280;36779;52.168;20.878;2023-01-28T05:42:53;101263.52;;;-0.04;77.96
50682;BME280;36779;52.168;20.878;2023-01-28T05:45:45;101265.41;;;-0.03;77.89
50682;BME280;36779;52.168;20.878;2023-01-28T05:48:39;101267.13;;;-0.03;77.83
50682;BME280;36779;52.168;20.878;2023-01-28T05:52:12;101268.27;;;-0.01;77.86
50682;BME280;36779;52.168;20.878;2023-01-28T05:55:02;101267.29;;;-0.02;77.80
50682;BME280;36779;52.168;20.878;2023-01-28T05:57:52;101272.33;;;-0.02;77.84
50682;BME280;36779;52.168;20.878;2023-01-28T06:00:44;101269.36;;;-0.01;77.86
50682;BME280;36779;52.168;20.878;2023-01-28T06:03:33;101270.19;;;-0.01;77.95
50682;BME280;36779;52.168;20.878;2023-01-28T06:06:31;101270.70;;;0.00;77.88
50682;BME280;36779;52.168;20.878;2023-01-28T06:09:25;101269.56;;;-0.02;77.82
50682;BME280;36779;52.168;20.878;2023-01-28T06:12:19;101267.31;;;-0.03;77.97
50682;BME280;36779;52.168;20.878;2023-01-28T06:15:11;101275.77;;;-0.04;77.87
50682;BME280;36779;52.168;20.878;2023-01-28T06:18:07;101279.55;;;-0.06;77.94
50682;BME280;36779;52.168;20.878;2023-01-28T06:21:00;101285.19;;;-0.07;77.98
50682;BME280;36779;52.168;20.878;2023-01-28T06:23:49;101285.98;;;-0.09;77.94
50682;BME280;36779;52.168;20.878;2023-01-28T06:26:40;101289.60;;;-0.08;77.96
50682;BME280;36779;52.168;20.878;2023-01-28T06:29:30;101288.21;;;-0.09;77.88
50682;BME280;36779;52.168;20.878;2023-01-28T06:32:28;101289.02;;;-0.07;77.82
50682;BME280;36779;52.168;20.878;2023-01-28T06:35:18;101293.54;;;-0.06;77.81
50682;BME280;36779;52.168;20.878;2023-01-28T06:38:10;101297.10;;;-0.04;77.89
50682;BME280;36779;52.168;20.878;2023-01-28T06:41:02;101302.13;;;-0.03;77.79
50682;BME280;36779;52.168;20.878;2023-01-28T06:43:51;101302.05;;;-0.02;77.94
50682;BME280;36779;52.168;20.878;2023-01-28T06:46:44;101301.83;;;-0.00;77.89
50682;BME280;36779;52.168;20.878;2023-01-28T06:49:34;101300.19;;;0.01;77.91
50682;BME280;36779;52.168;20.878;2023-01-28T06:52:03;101300.73;;;0.01;77.98
50682;BME280;36779;52.168;20.878;2023-01-28T06:54:58;101301.70;;;-0.02;78.05
50682;BME280;36779;52.168;20.878;2023-01-28T06:57:49;101305.58;;;-0.02;78.14
50682;BME280;36779;52.168;20.878;2023-01-28T07:00:38;101312.67;;;-0.05;78.00
50682;BME280;36779;52.168;20.878;2023-01-28T07:03:28;101311.71;;;-0.06;78.07
50682;BME280;36779;52.168;20.878;2023-01-28T07:06:21;101316.41;;;-0.06;78.04
50682;BME280;36779;52.168;20.878;2023-01-28T07:09:10;101319.99;;;-0.04;78.02
50682;BME280;36779;52.168;20.878;2023-01-28T07:12:04;101325.03;;;-0.03;78.06
50682;BME280;36779;52.168;20.878;2023-01-28T07:14:45;101325.69;;;-0.03;78.01
50682;BME280;36779;52.168;20.878;2023-01-28T07:17:35;101322.92;;;0.01;78.01
50682;BME280;36779;52.168;20.878;2023-01-28T07:20:30;101323.58;;;0.05;78.06
50682;BME280;36779;52.168;20.878;2023-01-28T07:23:19;101326.77;;;0.12;77.98
50682;BME280;36779;52.168;20.878;2023-01-28T07:26:10;101321.92;;;0.14;78.05
50682;BME280;36779;52.168;20.878;2023-01-28T07:29:03;101323.35;;;0.13;77.98
50682;BME280;36779;52.168;20.878;2023-01-28T07:31:57;101322.36;;;0.12;78.00
50682;BME280;36779;52.168;20.878;2023-01-28T07:35:08;101322.79;;;0.11;78.07
50682;BME280;36779;52.168;20.878;2023-01-28T07:38:04;101328.88;;;0.08;78.04
50682;BME280;36779;52.168;20.878;2023-01-28T07:40:54;101331.93;;;0.06;78.02
50682;BME280;36779;52.168;20.878;2023-01-28T07:43:46;101332.52;;;0.05;77.98
50682;BME280;36779;52.168;20.878;2023-01-28T07:46:38;101330.96;;;0.04;77.94
50682;BME280;36779;52.168;20.878;2023-01-28T07:49:35;101332.44;;;0.06;78.03
50682;BME280;36779;52.168;20.878;2023-01-28T07:52:48;101334.70;;;0.07;78.01
50682;BME280;36779;52.168;20.878;2023-01-28T07:55:44;101332.66;;;0.05;77.91
50682;BME280;36779;52.168;20.878;2023-01-28T07:58:37;101335.44;;;0.06;77.97
50682;BME280;36779;52.168;20.878;2023-01-28T08:01:47;101337.94;;;0.08;78.02
50682;BME280;36779;52.168;20.878;2023-01-28T08:04:42;101335.91;;;0.07;77.93
50682;BME280;36779;52.168;20.878;2023-01-28T08:07:33;101333.80;;;0.04;77.92
50682;BME280;36779;52.168;20.878;2023-01-28T08:13:41;101336.95;;;-0.04;78.06
50682;BME280;36779;52.168;20.878;2023-01-28T08:16:33;101334.09;;;-0.07;78.03
50682;BME280;36779;52.168;20.878;2023-01-28T08:19:32;101338.30;;;-0.07;78.02
50682;BME280;36779;52.168;20.878;2023-01-28T08:22:26;101337.42;;;-0.07;78.07
50682;BME280;36779;52.168;20.878;2023-01-28T08:26:04;101333.75;;;-0.07;78.10
50682;BME280;36779;52.168;20.878;2023-01-28T08:28:53;101332.27;;;-0.05;78.04
50682;BME280;36779;52.168;20.878;2023-01-28T08:31:45;101331.85;;;-0.04;77.97
50682;BME280;36779;52.168;20.878;2023-01-28T08:34:39;101331.45;;;-0.03;78.04
50682;BME280;36779;52.168;20.878;2023-01-28T08:37:29;101334.05;;;-0.02;78.06
50682;BME280;36779;52.168;20.878;2023-01-28T08:40:19;101335.05;;;-0.01;78.07
50682;BME280;36779;52.168;20.878;2023-01-28T08:43:12;101331.89;;;-0.01;78.15
50682;BME280;36779;52.168;20.878;2023-01-28T08:46:22;101331.18;;;-0.01;78.22
50682;BME280;36779;52.168;20.878;2023-01-28T08:49:11;101331.77;;;-0.02;78.18
50682;BME280;36779;52.168;20.878;2023-01-28T08:52:01;101333.41;;;-0.03;78.11
50682;BME280;36779;52.168;20.878;2023-01-28T08:54:59;101330.83;;;-0.04;78.11
50682;BME280;36779;52.168;20.878;2023-01-28T08:57:50;101330.81;;;-0.04;78.15
50682;BME280;36779;52.168;20.878;2023-01-28T09:00:40;101336.38;;;-0.03;78.20
50682;BME280;36779;52.168;20.878;2023-01-28T09:03:30;101343.80;;;-0.01;78.15
50682;BME280;36779;52.168;20.878;2023-01-28T09:06:23;101344.34;;;0.02;78.16
50682;BME280;36779;52.168;20.878;2023-01-28T09:09:13;101345.45;;;0.05;78.14
50682;BME280;36779;52.168;20.878;2023-01-28T09:15:36;101353.20;;;0.07;78.18
50682;BME280;36779;52.168;20.878;2023-01-28T09:18:26;101359.67;;;0.07;78.13
50682;BME280;36779;52.168;20.878;2023-01-28T09:21:16;101356.90;;;0.06;78.13
50682;BME280;36779;52.168;20.878;2023-01-28T09:24:09;101362.11;;;0.08;78.14
50682;BME280;36779;52.168;20.878;2023-01-28T09:26:58;101363.01;;;0.07;78.20
50682;BME280;36779;52.168;20.878;2023-01-28T09:29:45;101363.70;;;0.07;78.32
50682;BME280;36779;52.168;20.878;2023-01-28T09:32:13;101366.99;;;0.08;78.33
50682;BME280;36779;52.168;20.878;2023-01-28T09:34:42;101366.05;;;0.09;78.22
50682;BME280;36779;52.168;20.878;2023-01-28T09:37:12;101365.92;;;0.08;78.22
50682;BME280;36779;52.168;20.878;2023-01-28T09:39:42;101364.77;;;0.10;78.30
50682;BME280;36779;52.168;20.878;2023-01-28T09:42:42;101368.56;;;0.11;78.21
50682;BME280;36779;52.168;20.878;2023-01-28T09:45:26;101369.63;;;0.11;78.21
50682;BME280;36779;52.168;20.878;2023-01-28T09:48:03;101366.95;;;0.12;78.29
50682;BME280;36779;52.168;20.878;2023-01-28T09:50:37;101365.36;;;0.16;78.27
50682;BME280;36779;52.168;20.878;2023-01-28T09:53:11;101364.27;;;0.21;78.29
50682;BME280;36779;52.168;20.878;2023-01-28T09:55:43;101364.02;;;0.22;78.25
50682;BME280;36779;52.168;20.878;2023-01-28T09:58:14;101363.84;;;0.22;78.28
50682;BME280;36779;52.168;20.878;2023-01-28T10:00:51;101360.69;;;0.23;78.33
50682;BME280;36779;52.168;20.878;2023-01-28T10:03:38;101363.62;;;0.20;78.22
50682;BME280;36779;52.168;20.878;2023-01-28T10:06:19;101361.19;;;0.16;78.28
50682;BME280;36779;52.168;20.878;2023-01-28T10:09:05;101358.91;;;0.16;78.39
50682;BME280;36779;52.168;20.878;2023-01-28T10:11:47;101352.58;;;0.17;78.31
50682;BME280;36779;52.168;20.878;2023-01-28T10:14:30;101351.16;;;0.17;78.33
50682;BME280;36779;52.168;20.878;2023-01-28T10:17:08;101350.39;;;0.18;78.34
50682;BME280;36779;52.168;20.878;2023-01-28T10:19:44;101348.23;;;0.20;78.21
50682;BME280;36779;52.168;20.878;2023-01-28T10:22:19;101344.47;;;0.22;78.22
50682;BME280;36779;52.168;20.878;2023-01-28T10:24:53;101344.59;;;0.23;78.30
50682;BME280;36779;52.168;20.878;2023-01-28T10:27:29;101342.58;;;0.25;78.16
50682;BME280;36779;52.168;20.878;2023-01-28T10:29:59;101343.54;;;0.27;78.24
50682;BME280;36779;52.168;20.878;2023-01-28T10:32:37;101342.79;;;0.28;78.25
50682;BME280;36779;52.168;20.878;2023-01-28T10:35:10;101342.11;;;0.24;78.18
50682;BME280;36779;52.168;20.878;2023-01-28T10:37:39;101337.64;;;0.18;78.21
50682;BME280;36779;52.168;20.878;2023-01-28T10:40:14;101338.30;;;0.15;78.22
50682;BME280;36779;52.168;20.878;2023-01-28T10:42:44;101336.64;;;0.14;78.37
50682;BME280;36779;52.168;20.878;2023-01-28T10:45:21;101335.61;;;0.13;78.29
50682;BME280;36779;52.168;20.878;2023-01-28T10:47:53;101334.26;;;0.12;78.36
50682;BME280;36779;52.168;20.878;2023-01-28T10:50:25;101331.65;;;0.12;78.34
50682;BME280;36779;52.168;20.878;2023-01-28T10:52:55;101333.27;;;0.11;78.30
50682;BME280;36779;52.168;20.878;2023-01-28T10:55:27;101334.32;;;0.11;78.33
50682;BME280;36779;52.168;20.878;2023-01-28T10:57:59;101329.52;;;0.12;78.34
50682;BME280;36779;52.168;20.878;2023-01-28T11:00:30;101329.48;;;0.13;78.35
50682;BME280;36779;52.168;20.878;2023-01-28T11:03:01;101333.59;;;0.15;78.39
50682;BME280;36779;52.168;20.878;2023-01-28T11:05:32;101332.85;;;0.16;78.44
50682;BME280;36779;52.168;20.878;2023-01-28T11:08:16;101327.85;;;0.15;78.33
50682;BME280;36779;52.168;20.878;2023-01-28T11:10:46;101329.58;;;0.11;78.39
50682;BME280;36779;52.168;20.878;2023-01-28T11:13:17;101328.10;;;0.09;78.41
50682;BME280;36779;52.168;20.878;2023-01-28T11:15:48;101331.00;;;0.07;78.36
50682;BME280;36779;52.168;20.878;2023-01-28T11:18:23;101327.14;;;0.08;78.39
50682;BME280;36779;52.168;20.878;2023-01-28T11:20:55;101320.13;;;0.08;78.38
50682;BME280;36779;52.168;20.878;2023-01-28T11:23:28;101319.31;;;0.11;78.41
50682;BME280;36779;52.168;20.878;2023-01-28T11:26:06;101320.29;;;0.12;78.39
50682;BME280;36779;52.168;20.878;2023-01-28T11:28:39;101317.21;;;0.14;78.41
50682;BME280;36779;52.168;20.878;2023-01-28T11:31:10;101315.79;;;0.15;78.38
50682;BME280;36779;52.168;20.878;2023-01-28T11:33:44;101315.02;;;0.16;78.34
50682;BME280;36779;52.168;20.878;2023-01-28T11:36:16;101319.73;;;0.16;78.41
50682;BME280;36779;52.168;20.878;2023-01-28T11:38:54;101316.25;;;0.16;78.36
50682;BME280;36779;52.168;20.878;2023-01-28T11:41:28;101311.67;;;0.16;78.42
50682;BME280;36779;52.168;20.878;2023-01-28T11:43:59;101304.17;;;0.16;78.54
50682;BME280;36779;52.168;20.878;2023-01-28T11:46:45;101308.12;;;0.14;78.39
50682;BME280;36779;52.168;20.878;2023-01-28T11:49:26;101303.52;;;0.12;78.47
50682;BME280;36779;52.168;20.878;2023-01-28T11:52:05;101304.82;;;0.10;78.47
50682;BME280;36779;52.168;20.878;2023-01-28T11:54:49;101306.88;;;0.11;78.46
50682;BME280;36779;52.168;20.878;2023-01-28T11:57:24;101306.00;;;0.11;78.54
50682;BME280;36779;52.168;20.878;2023-01-28T12:00:01;101305.79;;;0.12;78.51
50682;BME280;36779;52.168;20.878;2023-01-28T12:02:50;101305.48;;;0.15;78.46
50682;BME280;36779;52.168;20.878;2023-01-28T12:05:46;101297.45;;;0.21;78.62
50682;BME280;36779;52.168;20.878;2023-01-28T12:08:22;101297.52;;;0.24;78.52
50682;BME280;36779;52.168;20.878;2023-01-28T12:11:08;101304.85;;;0.20;78.52
50682;BME280;36779;52.168;20.878;2023-01-28T12:13:54;101302.40;;;0.17;78.53
50682;BME280;36779;52.168;20.878;2023-01-28T12:16:40;101301.08;;;0.15;78.57
50682;BME280;36779;52.168;20.878;2023-01-28T12:19:30;101301.65;;;0.14;78.55
50682;BME280;36779;52.168;20.878;2023-01-28T12:22:08;101301.00;;;0.13;78.53
50682;BME280;36779;52.168;20.878;2023-01-28T12:24:49;101303.35;;;0.12;78.44
50682;BME280;36779;52.168;20.878;2023-01-28T12:27:32;101303.05;;;0.11;78.47
50682;BME280;36779;52.168;20.878;2023-01-28T12:30:13;101297.84;;;0.10;78.52
50682;BME280;36779;52.168;20.878;2023-01-28T12:33:01;101296.31;;;0.09;78.51
50682;BME280;36779;52.168;20.878;2023-01-28T12:35:47;101296.34;;;0.08;78.45
50682;BME280;36779;52.168;20.878;2023-01-28T12:38:27;101301.85;;;0.10;78.47
50682;BME280;36779;52.168;20.878;2023-01-28T12:41:06;101298.13;;;0.08;78.46
50682;BME280;36779;52.168;20.878;2023-01-28T12:43:52;101297.81;;;0.07;78.50
50682;BME280;36779;52.168;20.878;2023-01-28T12:46:40;101296.62;;;0.06;78.54
50682;BME280;36779;52.168;20.878;2023-01-28T12:49:15;101298.48;;;0.04;78.53
50682;BME280;36779;52.168;20.878;2023-01-28T12:51:56;101294.36;;;0.03;78.54
50682;BME280;36779;52.168;20.878;2023-01-28T12:54:26;101296.19;;;0.01;78.54
50682;BME280;36779;52.168;20.878;2023-01-28T12:57:00;101300.98;;;-0.02;78.50
50682;BME280;36779;52.168;20.878;2023-01-28T12:59:38;101302.26;;;-0.02;78.55
50682;BME280;36779;52.168;20.878;2023-01-28T13:02:20;101303.71;;;0.00;78.61
50682;BME280;36779;52.168;20.878;2023-01-28T13:04:58;101307.24;;;0.03;78.63
50682;BME280;36779;52.168;20.878;2023-01-28T13:07:33;101305.17;;;0.03;78.52
50682;BME280;36779;52.168;20.878;2023-01-28T13:10:09;101301.61;;;0.01;78.53
50682;BME280;36779;52.168;20.878;2023-01-28T13:12:47;101305.45;;;0.01;78.58
50682;BME280;36779;52.168;20.878;2023-01-28T13:15:19;101298.35;;;-0.01;78.61
50682;BME280;36779;52.168;20.878;2023-01-28T13:17:57;101298.80;;;0.01;78.66
50682;BME280;36779;52.168;20.878;2023-01-28T13:20:36;101296.75;;;-0.00;78.64
50682;BME280;36779;52.168;20.878;2023-01-28T13:23:23;101300.86;;;-0.03;78.66
50682;BME280;36779;52.168;20.878;2023-01-28T13:25:53;101307.67;;;-0.06;78.48
50682;BME280;36779;52.168;20.878;2023-01-28T13:28:29;101311.40;;;-0.07;78.56
50682;BME280;36779;52.168;20.878;2023-01-28T13:31:04;101306.04;;;-0.08;78.48
50682;BME280;36779;52.168;20.878;2023-01-28T13:33:36;101301.73;;;-0.10;78.49
50682;BME280;36779;52.168;20.878;2023-01-28T13:36:23;101309.95;;;-0.10;78.51
50682;BME280;36779;52.168;20.878;2023-01-28T13:39:03;101310.73;;;-0.12;78.44
50682;BME280;36779;52.168;20.878;2023-01-28T13:41:40;101309.95;;;-0.13;78.50
50682;BME280;36779;52.168;20.878;2023-01-28T13:44:19;101314.41;;;-0.16;78.54
50682;BME280;36779;52.168;20.878;2023-01-28T13:46:53;101314.19;;;-0.18;78.47
50682;BME280;36779;52.168;20.878;2023-01-28T13:49:27;101314.14;;;-0.21;78.44
50682;BME280;36779;52.168;20.878;2023-01-28T13:52:05;101311.94;;;-0.22;78.60
50682;BME280;36779;52.168;20.878;2023-01-28T13:54:43;101309.60;;;-0.21;78.66
50682;BME280;36779;52.168;20.878;2023-01-28T14:00:24;101310.40;;;-0.19;78.53
50682;BME280;36779;52.168;20.878;2023-01-28T14:06:36;101309.73;;;-0.20;78.56
50682;BME280;36779;52.168;20.878;2023-01-28T14:09:27;101305.78;;;-0.14;78.73
50682;BME280;36779;52.168;20.878;2023-01-28T14:12:23;101304.09;;;-0.08;78.74
50682;BME280;36779;52.168;20.878;2023-01-28T14:15:15;101301.38;;;-0.10;78.57
50682;BME280;36779;52.168;20.878;2023-01-28T14:17:49;101299.98;;;-0.10;78.67
50682;BME280;36779;52.168;20.878;2023-01-28T14:20:27;101298.79;;;-0.10;78.63
50682;BME280;36779;52.168;20.878;2023-01-28T14:23:01;101305.55;;;-0.12;78.68
50682;BME280;36779;52.168;20.878;2023-01-28T14:25:54;101310.56;;;-0.16;78.74
50682;BME280;36779;52.168;20.878;2023-01-28T14:28:39;101308.40;;;-0.18;78.70
50682;BME280;36779;52.168;20.878;2023-01-28T14:31:20;101311.95;;;-0.19;78.72
50682;BME280;36779;52.168;20.878;2023-01-28T14:33:57;101312.96;;;-0.18;78.64
50682;BME280;36779;52.168;20.878;2023-01-28T14:36:47;101313.36;;;-0.19;78.66
50682;BME280;36779;52.168;20.878;2023-01-28T14:39:23;101316.92;;;-0.17;78.66
50682;BME280;36779;52.168;20.878;2023-01-28T14:42:19;101311.55;;;-0.14;78.65
50682;BME280;36779;52.168;20.878;2023-01-28T14:45:17;101309.36;;;-0.12;78.73
50682;BME280;36779;52.168;20.878;2023-01-28T14:48:20;101311.58;;;-0.11;78.62
50682;BME280;36779;52.168;20.878;2023-01-28T14:51:16;101310.12;;;-0.10;78.56
50682;BME280;36779;52.168;20.878;2023-01-28T14:57:13;101315.06;;;-0.11;78.59
50682;BME280;36779;52.168;20.878;2023-01-28T14:59:56;101313.52;;;-0.12;78.74